createdAt,value
2019-01-02T00:00:14.998Z,943.35
2019-01-02T00:01:16.079Z,943.28
2019-01-02T00:02:16.255Z,943.41
2019-01-02T00:03:16.965Z,943.43
2019-01-02T00:04:17.283Z,943.35
2019-01-02T00:05:18.255Z,943.4
2019-01-02T00:06:19.615Z,943.39
2019-01-02T00:07:19.872Z,943.36
2019-01-02T00:08:21.014Z,943.31
2019-01-02T00:09:21.514Z,943.3
2019-01-02T00:10:22.051Z,943.29
2019-01-02T00:11:23.798Z,943.37
2019-01-02T00:12:24.488Z,943.4
2019-01-02T00:13:25.195Z,943.35
2019-01-02T00:14:26.655Z,943.28
2019-01-02T00:15:27.755Z,943.27
2019-01-02T00:16:29.028Z,943.29
2019-01-02T00:17:30.027Z,943.26
2019-01-02T00:18:30.836Z,943.38
2019-01-02T00:19:31.843Z,943.24
2019-01-02T00:20:32.886Z,943.38
2019-01-02T00:21:33.591Z,943.4
2019-01-02T00:22:34.520Z,943.43
2019-01-02T00:23:34.896Z,943.42
2019-01-02T00:24:35.329Z,943.44
2019-01-02T00:25:36.411Z,943.49
2019-01-02T00:26:36.933Z,943.62
2019-01-02T00:27:37.362Z,943.62
2019-01-02T00:28:37.842Z,943.62
2019-01-02T00:29:39.244Z,943.72
2019-01-02T00:30:40.634Z,943.82
2019-01-02T00:31:41.334Z,943.88
2019-01-02T00:32:41.558Z,943.88
2019-01-02T00:33:42.296Z,944.04
2019-01-02T00:34:43.090Z,943.98
2019-01-02T00:35:43.798Z,943.97
2019-01-02T00:36:44.342Z,944
2019-01-02T00:37:44.553Z,944.02
2019-01-02T00:38:45.062Z,944.07
2019-01-02T00:39:45.958Z,944.13
2019-01-02T00:40:46.391Z,944.15
2019-01-02T00:41:47.631Z,944.14
2019-01-02T00:42:48.793Z,944.16
2019-01-02T00:43:50.068Z,944.09
2019-01-02T00:44:51.717Z,944.12
2019-01-02T00:45:51.948Z,944.09
2019-01-02T00:46:53.007Z,944.08
2019-01-02T00:47:54.276Z,944.07
2019-01-02T00:48:54.550Z,944.04
2019-01-02T00:49:55.329Z,944.07
2019-01-02T00:50:55.732Z,944.1
2019-01-02T00:51:56.455Z,944.14
2019-01-02T00:52:57.185Z,944.16
2019-01-02T00:53:57.411Z,944.11
2019-01-02T00:54:58.129Z,944.15
2019-01-02T00:55:58.579Z,944.15
2019-01-02T00:56:59.021Z,944.2
2019-01-02T00:57:59.783Z,944.1
2019-01-02T00:59:00.764Z,944.13
2019-01-02T01:00:01.645Z,944.17
2019-01-02T01:01:02.072Z,944.16
2019-01-02T01:02:02.505Z,944.29
2019-01-02T01:03:02.789Z,944.3
2019-01-02T01:04:03.880Z,944.35
2019-01-02T01:05:04.967Z,944.35
2019-01-02T01:06:05.545Z,944.4
2019-01-02T01:07:06.286Z,944.33
2019-01-02T01:08:06.984Z,944.3
2019-01-02T01:09:07.502Z,944.33
2019-01-02T01:10:09.317Z,944.32
2019-01-02T01:11:10.284Z,944.3
2019-01-02T01:12:10.720Z,944.3
2019-01-02T01:13:11.924Z,944.3
2019-01-02T01:14:12.127Z,944.27
2019-01-02T01:15:13.607Z,944.19
2019-01-02T01:16:14.066Z,944.23
2019-01-02T01:17:14.773Z,944.17
2019-01-02T01:18:15.574Z,944.22
2019-01-02T01:19:16.581Z,944.26
2019-01-02T01:20:17.017Z,944.21
2019-01-02T01:21:18.010Z,944.27
2019-01-02T01:22:18.659Z,944.23
2019-01-02T01:23:19.931Z,944.19
2019-01-02T01:24:20.924Z,944.19
2019-01-02T01:25:21.651Z,944.14
2019-01-02T01:26:22.813Z,944.15
2019-01-02T01:27:23.962Z,944.13
2019-01-02T01:28:24.235Z,944.1
2019-01-02T01:29:25.471Z,944.09
2019-01-02T01:30:26.009Z,944.15
2019-01-02T01:31:26.996Z,944.19
2019-01-02T01:32:27.689Z,944.21
2019-01-02T01:33:28.491Z,944.24
2019-01-02T01:34:29.200Z,944.3
2019-01-02T01:35:29.956Z,944.32
2019-01-02T01:36:30.817Z,944.37
2019-01-02T01:37:31.520Z,944.35
2019-01-02T01:38:32.954Z,944.37
2019-01-02T01:39:33.402Z,944.43
2019-01-02T01:40:33.837Z,944.44
2019-01-02T01:41:34.538Z,944.41
2019-01-02T01:42:35.323Z,944.38
2019-01-02T01:43:36.330Z,944.41
2019-01-02T01:44:37.121Z,944.39
2019-01-02T01:45:38.121Z,944.4
2019-01-02T01:46:38.872Z,944.39
2019-01-02T01:47:40.111Z,944.44
2019-01-02T01:48:40.294Z,944.41
2019-01-02T01:49:40.999Z,944.38
2019-01-02T01:50:41.716Z,944.4
2019-01-02T01:51:42.767Z,944.39
2019-01-02T01:52:43.758Z,944.4
2019-01-02T01:53:44.331Z,944.41
2019-01-02T01:54:45.350Z,944.4
2019-01-02T01:55:45.786Z,944.44
2019-01-02T01:56:47.211Z,944.44
2019-01-02T01:57:47.630Z,944.44
2019-01-02T01:58:48.172Z,944.42
2019-01-02T01:59:49.657Z,944.41
2019-01-02T02:00:51.065Z,944.31
2019-01-02T02:01:51.786Z,944.31
2019-01-02T02:02:52.529Z,944.28
2019-01-02T02:03:53.065Z,944.27
2019-01-02T02:04:53.490Z,944.3
2019-01-02T02:05:54.823Z,944.32
2019-01-02T02:06:55.365Z,944.34
2019-01-02T02:07:56.070Z,944.32
2019-01-02T02:08:56.501Z,944.37
2019-01-02T02:09:57.057Z,944.44
2019-01-02T02:10:57.485Z,944.41
2019-01-02T02:11:58.475Z,944.41
2019-01-02T02:12:58.974Z,944.42
2019-01-02T02:13:59.981Z,944.42
2019-01-02T02:15:00.791Z,944.44
2019-01-02T02:16:01.816Z,944.42
2019-01-02T02:17:03.204Z,944.44
2019-01-02T02:18:03.762Z,944.42
2019-01-02T02:19:04.477Z,944.44
2019-01-02T02:20:05.472Z,944.43
2019-01-02T02:21:05.719Z,944.46
2019-01-02T02:22:06.164Z,944.44
2019-01-02T02:23:06.948Z,944.41
2019-01-02T02:24:07.625Z,944.38
2019-01-02T02:25:08.772Z,944.33
2019-01-02T02:26:09.436Z,944.42
2019-01-02T02:27:10.380Z,944.37
2019-01-02T02:28:10.815Z,944.3
2019-01-02T02:29:12.261Z,944.35
2019-01-02T02:30:13.477Z,944.4
2019-01-02T02:31:14.131Z,944.4
2019-01-02T02:32:14.403Z,944.38
2019-01-02T02:33:14.988Z,944.37
2019-01-02T02:34:15.917Z,944.38
2019-01-02T02:35:16.471Z,944.47
2019-01-02T02:36:17.837Z,944.49
2019-01-02T02:37:18.669Z,944.42
2019-01-02T02:38:20.361Z,944.46
2019-01-02T02:39:21.614Z,944.56
2019-01-02T02:40:22.872Z,944.45
2019-01-02T02:41:23.990Z,944.5
2019-01-02T02:42:24.934Z,944.6
2019-01-02T02:43:25.254Z,944.54
2019-01-02T02:44:26.522Z,944.64
2019-01-02T02:45:27.936Z,944.62
2019-01-02T02:46:28.507Z,944.62
2019-01-02T02:47:29.288Z,944.67
2019-01-02T02:48:29.905Z,944.7
2019-01-02T02:49:30.952Z,944.72
2019-01-02T02:50:31.514Z,944.64
2019-01-02T02:51:32.685Z,944.78
2019-01-02T02:52:33.364Z,944.74
2019-01-02T02:53:34.096Z,944.72
2019-01-02T02:54:23.090Z,944.67
2019-01-02T02:55:24.025Z,944.77
2019-01-02T02:56:24.599Z,944.78
2019-01-02T02:57:24.841Z,944.76
2019-01-02T02:58:25.725Z,944.82
2019-01-02T02:59:27.106Z,944.79
2019-01-02T03:00:27.408Z,944.82
2019-01-02T03:01:28.247Z,944.87
2019-01-02T03:02:28.629Z,944.79
2019-01-02T03:03:29.110Z,944.74
2019-01-02T03:04:30.304Z,944.7
2019-01-02T03:05:31.387Z,944.8
2019-01-02T03:06:32.791Z,944.76
2019-01-02T03:07:33.437Z,944.78
2019-01-02T03:08:34.239Z,944.73
2019-01-02T03:09:34.953Z,944.79
2019-01-02T03:10:36.157Z,944.67
2019-01-02T03:11:36.500Z,944.88
2019-01-02T03:12:36.791Z,944.86
2019-01-02T03:13:37.895Z,944.86
2019-01-02T03:14:38.657Z,944.9
2019-01-02T03:15:40.032Z,944.9
2019-01-02T03:16:40.898Z,944.9
2019-01-02T03:17:41.952Z,944.84
2019-01-02T03:18:42.708Z,944.91
2019-01-02T03:19:43.676Z,944.81
2019-01-02T03:20:44.232Z,944.95
2019-01-02T03:21:45.523Z,944.96
2019-01-02T03:22:46.958Z,944.98
2019-01-02T03:23:47.460Z,944.95
2019-01-02T03:24:48.531Z,945
2019-01-02T03:25:49.303Z,944.95
2019-01-02T03:26:49.940Z,944.99
2019-01-02T03:27:51.362Z,945.08
2019-01-02T03:28:52.732Z,945.15
2019-01-02T03:29:53.089Z,945.1
2019-01-02T03:30:54.410Z,945.13
2019-01-02T03:31:55.558Z,945.09
2019-01-02T03:32:56.400Z,945.11
2019-01-02T03:33:57.147Z,945.04
2019-01-02T03:34:57.675Z,944.99
2019-01-02T03:35:58.806Z,945
2019-01-02T03:36:59.222Z,945.06
2019-01-02T03:37:59.918Z,944.99
2019-01-02T03:39:00.620Z,945.03
2019-01-02T03:40:01.041Z,945.07
2019-01-02T03:41:01.729Z,945.12
2019-01-02T03:42:01.976Z,945.16
2019-01-02T03:43:03.225Z,945.19
2019-01-02T03:44:03.640Z,945.25
2019-01-02T03:45:04.058Z,945.2
2019-01-02T03:46:05.155Z,945.21
2019-01-02T03:47:05.847Z,945.17
2019-01-02T03:48:06.263Z,945.28
2019-01-02T03:49:06.958Z,945.27
2019-01-02T03:50:08.091Z,945.34
2019-01-02T03:51:09.061Z,945.34
2019-01-02T03:52:10.036Z,945.39
2019-01-02T03:53:10.731Z,945.36
2019-01-02T03:54:11.142Z,945.47
2019-01-02T03:55:11.836Z,945.49
2019-01-02T03:56:12.246Z,945.44
2019-01-02T03:57:13.661Z,945.52
2019-01-02T03:58:14.352Z,945.49
2019-01-02T03:59:15.324Z,945.44
2019-01-02T04:00:15.739Z,945.46
2019-01-02T04:01:16.437Z,945.49
2019-01-02T04:02:16.852Z,945.49
2019-01-02T04:03:17.542Z,945.55
2019-01-02T04:04:18.236Z,945.56
2019-01-02T04:05:18.650Z,945.53
2019-01-02T04:06:18.920Z,945.6
2019-01-02T04:07:19.612Z,945.6
2019-01-02T04:08:20.746Z,945.55
2019-01-02T04:09:21.884Z,945.51
2019-01-02T04:10:22.330Z,945.5
2019-01-02T04:11:23.022Z,945.55
2019-01-02T04:12:23.716Z,945.52
2019-01-02T04:13:24.137Z,945.6
2019-01-02T04:14:25.274Z,945.67
2019-01-02T04:15:25.965Z,945.64
2019-01-02T04:16:26.819Z,945.61
2019-01-02T04:17:27.510Z,945.63
2019-01-02T04:18:27.926Z,945.57
2019-01-02T04:19:28.338Z,945.6
2019-01-02T04:20:29.309Z,945.63
2019-01-02T04:21:29.726Z,945.72
2019-01-02T04:22:31.146Z,945.73
2019-01-02T04:23:31.877Z,945.8
2019-01-02T04:24:32.169Z,945.79
2019-01-02T04:25:32.304Z,945.83
2019-01-02T04:26:33.125Z,945.83
2019-01-02T04:27:33.820Z,945.81
2019-01-02T04:28:34.792Z,945.81
2019-01-02T04:29:35.763Z,945.88
2019-01-02T04:30:36.733Z,945.9
2019-01-02T04:31:37.978Z,945.87
2019-01-02T04:32:38.392Z,945.83
2019-01-02T04:33:39.361Z,945.9
2019-01-02T04:34:40.055Z,945.92
2019-01-02T04:35:41.025Z,945.9
2019-01-02T04:36:41.572Z,945.94
2019-01-02T04:37:42.268Z,945.95
2019-01-02T04:38:42.682Z,946.01
2019-01-02T04:39:43.372Z,946.04
2019-01-02T04:40:44.513Z,946.06
2019-01-02T04:41:44.765Z,946.08
2019-01-02T04:42:45.182Z,946.01
2019-01-02T04:43:46.153Z,945.95
2019-01-02T04:44:47.123Z,946.07
2019-01-02T04:45:47.542Z,946.07
2019-01-02T04:46:48.217Z,946.01
2019-01-02T04:47:48.634Z,946.04
2019-01-02T04:48:49.327Z,945.98
2019-01-02T04:49:49.738Z,945.94
2019-01-02T04:50:51.152Z,945.85
2019-01-02T04:51:52.289Z,945.96
2019-01-02T04:52:52.708Z,946.02
2019-01-02T04:53:53.715Z,945.99
2019-01-02T04:54:54.130Z,945.99
2019-01-02T04:55:55.100Z,946
2019-01-02T04:56:56.219Z,946.02
2019-01-02T04:57:56.637Z,946.04
2019-01-02T04:58:57.054Z,946.03
2019-01-02T04:59:57.578Z,946.03
2019-01-02T05:00:58.271Z,945.97
2019-01-02T05:01:58.522Z,946.02
2019-01-02T05:02:58.938Z,945.96
2019-01-02T05:03:59.355Z,945.96
2019-01-02T05:04:59.770Z,945.93
2019-01-02T05:06:00.489Z,945.96
2019-01-02T05:07:01.079Z,945.95
2019-01-02T05:08:01.771Z,946
2019-01-02T05:09:02.195Z,945.91
2019-01-02T05:10:02.885Z,945.97
2019-01-02T05:11:03.300Z,945.97
2019-01-02T05:12:04.436Z,945.93
2019-01-02T05:13:05.126Z,945.92
2019-01-02T05:14:06.540Z,945.91
2019-01-02T05:15:07.512Z,945.96
2019-01-02T05:16:08.037Z,945.93
2019-01-02T05:17:09.001Z,945.91
2019-01-02T05:18:09.969Z,945.91
2019-01-02T05:19:10.389Z,945.87
2019-01-02T05:20:11.084Z,945.87
2019-01-02T05:21:11.778Z,945.88
2019-01-02T05:22:13.072Z,945.94
2019-01-02T05:23:14.212Z,945.95
2019-01-02T05:24:14.679Z,945.94
2019-01-02T05:25:15.653Z,945.97
2019-01-02T05:26:16.344Z,945.99
2019-01-02T05:27:17.188Z,946
2019-01-02T05:28:18.156Z,945.97
2019-01-02T05:29:18.846Z,946.08
2019-01-02T05:30:19.826Z,946.13
2019-01-02T05:31:20.527Z,946.09
2019-01-02T05:32:21.498Z,946.08
2019-01-02T05:33:21.910Z,946.1
2019-01-02T05:34:22.436Z,946.1
2019-01-02T05:35:23.130Z,946.11
2019-01-02T05:36:23.822Z,946.14
2019-01-02T05:37:24.377Z,946.19
2019-01-02T05:38:24.790Z,946.16
2019-01-02T05:39:25.495Z,946.15
2019-01-02T05:40:26.185Z,946.12
2019-01-02T05:41:27.495Z,946.17
2019-01-02T05:42:27.912Z,946.22
2019-01-02T05:43:28.884Z,946.21
2019-01-02T05:44:29.299Z,946.24
2019-01-02T05:45:29.990Z,946.22
2019-01-02T05:46:30.690Z,946.23
2019-01-02T05:47:31.234Z,946.17
2019-01-02T05:48:32.207Z,946.12
2019-01-02T05:49:32.737Z,946.16
2019-01-02T05:50:33.871Z,946.1
2019-01-02T05:51:35.014Z,946.17
2019-01-02T05:52:35.259Z,946.16
2019-01-02T05:53:35.951Z,946.12
2019-01-02T05:54:37.198Z,946.21
2019-01-02T05:55:38.443Z,946.19
2019-01-02T05:56:39.144Z,946.16
2019-01-02T05:57:40.302Z,946.09
2019-01-02T05:58:41.271Z,946.17
2019-01-02T05:59:41.685Z,946.15
2019-01-02T06:00:42.096Z,946.18
2019-01-02T06:01:42.511Z,946.16
2019-01-02T06:02:42.932Z,946.12
2019-01-02T06:03:44.073Z,946.14
2019-01-02T06:04:46.242Z,946.11
2019-01-02T06:05:46.934Z,946.12
2019-01-02T06:06:47.348Z,946.13
2019-01-02T06:07:48.224Z,946.15
2019-01-02T06:08:49.235Z,946.15
2019-01-02T06:09:49.652Z,946.14
2019-01-02T06:10:50.907Z,946.16
2019-01-02T06:11:51.876Z,946.09
2019-01-02T06:12:52.571Z,946.05
2019-01-02T06:13:52.998Z,946.08
2019-01-02T06:14:53.694Z,946.12
2019-01-02T06:15:54.387Z,946.11
2019-01-02T06:16:55.079Z,946.11
2019-01-02T06:17:55.628Z,946.04
2019-01-02T06:18:56.057Z,945.99
2019-01-02T06:19:57.031Z,946.03
2019-01-02T06:20:57.727Z,946
2019-01-02T06:21:58.695Z,945.99
2019-01-02T06:22:59.214Z,945.98
2019-01-02T06:23:59.913Z,945.99
2019-01-02T06:25:00.881Z,945.99
2019-01-02T06:26:01.158Z,945.96
2019-01-02T06:27:01.726Z,945.92
2019-01-02T06:28:02.419Z,945.9
2019-01-02T06:29:03.159Z,945.86
2019-01-02T06:30:03.572Z,945.89
2019-01-02T06:31:04.710Z,945.87
2019-01-02T06:32:06.125Z,945.78
2019-01-02T06:33:07.095Z,945.75
2019-01-02T06:34:08.066Z,945.72
2019-01-02T06:35:08.483Z,945.76
2019-01-02T06:36:09.173Z,945.77
2019-01-02T06:37:09.980Z,945.74
2019-01-02T06:38:10.652Z,945.7
2019-01-02T06:39:11.345Z,945.73
2019-01-02T06:40:12.036Z,945.7
2019-01-02T06:41:12.738Z,945.74
2019-01-02T06:42:13.875Z,945.64
2019-01-02T06:43:14.847Z,945.7
2019-01-02T06:44:16.112Z,945.72
2019-01-02T06:45:17.247Z,945.78
2019-01-02T06:46:17.664Z,945.62
2019-01-02T06:47:18.236Z,945.69
2019-01-02T06:48:18.986Z,945.65
2019-01-02T06:49:19.405Z,945.66
2019-01-02T06:50:20.144Z,945.72
2019-01-02T06:51:20.554Z,945.71
2019-01-02T06:52:20.974Z,945.67
2019-01-02T06:53:21.663Z,945.58
2019-01-02T06:54:22.801Z,945.66
2019-01-02T06:55:23.218Z,945.57
2019-01-02T06:56:23.909Z,945.62
2019-01-02T06:57:24.327Z,945.7
2019-01-02T06:58:24.916Z,945.65
2019-01-02T06:59:26.054Z,945.77
2019-01-02T07:00:26.745Z,945.79
2019-01-02T07:01:27.889Z,945.8
2019-01-02T07:02:28.309Z,945.87
2019-01-02T07:03:28.764Z,945.86
2019-01-02T07:04:30.179Z,945.87
2019-01-02T07:05:31.153Z,945.9
2019-01-02T07:06:31.725Z,945.9
2019-01-02T07:07:32.142Z,945.92
2019-01-02T07:08:32.982Z,945.9
2019-01-02T07:09:33.957Z,945.98
2019-01-02T07:10:34.928Z,945.97
2019-01-02T07:11:35.344Z,945.98
2019-01-02T07:12:35.762Z,946.02
2019-01-02T07:13:36.906Z,945.95
2019-01-02T07:14:37.593Z,945.98
2019-01-02T07:15:38.567Z,946.08
2019-01-02T07:16:39.312Z,946.06
2019-01-02T07:17:40.453Z,946.08
2019-01-02T07:18:41.036Z,946.1
2019-01-02T07:19:41.732Z,946.1
2019-01-02T07:20:42.146Z,946.1
2019-01-02T07:21:42.562Z,946.12
2019-01-02T07:22:42.982Z,946.11
2019-01-02T07:23:44.279Z,946.15
2019-01-02T07:24:45.538Z,946.13
2019-01-02T07:25:46.786Z,946.1
2019-01-02T07:26:48.624Z,946.07
2019-01-02T07:27:49.316Z,946.1
2019-01-02T07:28:49.721Z,946.14
2019-01-02T07:29:50.417Z,946.09
2019-01-02T07:30:51.387Z,946.15
2019-01-02T07:31:51.638Z,946.17
2019-01-02T07:32:52.058Z,946.16
2019-01-02T07:33:52.475Z,946.18
2019-01-02T07:34:53.168Z,946.19
2019-01-02T07:35:54.304Z,946.22
2019-01-02T07:36:55.007Z,946.16
2019-01-02T07:37:55.447Z,946.25
2019-01-02T07:38:56.290Z,946.3
2019-01-02T07:39:56.985Z,946.31
2019-01-02T07:40:57.415Z,946.31
2019-01-02T07:41:58.106Z,946.36
2019-01-02T07:42:59.242Z,946.31
2019-01-02T07:44:00.218Z,946.41
2019-01-02T07:45:00.923Z,946.37
2019-01-02T07:46:01.349Z,946.43
2019-01-02T07:47:02.766Z,946.48
2019-01-02T07:48:03.767Z,946.4
2019-01-02T07:49:04.596Z,946.44
2019-01-02T07:50:05.570Z,946.47
2019-01-02T07:51:05.983Z,946.48
2019-01-02T07:52:06.401Z,946.47
2019-01-02T07:53:06.819Z,946.48
2019-01-02T07:54:07.236Z,946.41
2019-01-02T07:55:08.376Z,946.33
2019-01-02T07:56:09.082Z,946.44
2019-01-02T07:57:10.059Z,946.43
2019-01-02T07:58:10.490Z,946.48
2019-01-02T07:59:10.885Z,946.39
2019-01-02T08:00:11.588Z,946.35
2019-01-02T08:01:12.118Z,946.32
2019-01-02T08:02:12.808Z,946.32
2019-01-02T08:03:13.551Z,946.29
2019-01-02T08:04:13.972Z,946.28
2019-01-02T08:05:14.666Z,946.26
2019-01-02T08:06:15.805Z,946.23
2019-01-02T08:07:16.503Z,946.24
2019-01-02T08:08:17.475Z,946.19
2019-01-02T08:09:18.042Z,946.29
2019-01-02T08:10:18.458Z,946.37
2019-01-02T08:11:18.876Z,946.32
2019-01-02T08:12:20.017Z,946.3
2019-01-02T08:13:20.435Z,946.38
2019-01-02T08:14:21.135Z,946.38
2019-01-02T08:15:21.832Z,946.36
2019-01-02T08:16:23.084Z,946.33
2019-01-02T08:17:23.502Z,946.28
2019-01-02T08:18:24.474Z,946.27
2019-01-02T08:19:25.603Z,946.25
2019-01-02T08:20:26.744Z,946.31
2019-01-02T08:21:27.438Z,946.35
2019-01-02T08:22:27.856Z,946.37
2019-01-02T08:23:28.275Z,946.38
2019-01-02T08:24:29.246Z,946.41
2019-01-02T08:25:29.675Z,946.38
2019-01-02T08:26:31.092Z,946.27
2019-01-02T08:27:31.788Z,946.46
2019-01-02T08:28:32.929Z,946.39
2019-01-02T08:29:33.318Z,946.38
2019-01-02T08:30:34.014Z,946.43
2019-01-02T08:31:34.190Z,946.3
2019-01-02T08:32:34.608Z,946.19
2019-01-02T08:33:35.307Z,946.4
2019-01-02T08:34:35.723Z,946.49
2019-01-02T08:35:36.828Z,946.56
2019-01-02T08:36:37.405Z,946.54
2019-01-02T08:37:38.379Z,946.55
2019-01-02T08:38:39.361Z,946.56
2019-01-02T08:39:40.327Z,946.58
2019-01-02T08:40:40.742Z,946.61
2019-01-02T08:41:41.164Z,946.62
2019-01-02T08:42:42.305Z,946.49
2019-01-02T08:43:43.004Z,946.58
2019-01-02T08:44:43.437Z,946.52
2019-01-02T08:45:44.587Z,946.51
2019-01-02T08:46:45.004Z,946.55
2019-01-02T08:47:45.433Z,946.41
2019-01-02T08:48:46.129Z,946.48
2019-01-02T08:49:46.956Z,946.44
2019-01-02T08:50:47.375Z,946.55
2019-01-02T08:51:47.914Z,946.59
2019-01-02T08:52:48.166Z,946.62
2019-01-02T08:53:49.147Z,946.63
2019-01-02T08:54:49.835Z,946.6
2019-01-02T08:55:50.527Z,946.63
2019-01-02T08:56:51.220Z,946.67
2019-01-02T08:57:51.639Z,946.5
2019-01-02T08:58:52.611Z,946.62
2019-01-02T08:59:53.725Z,946.59
2019-01-02T09:00:54.421Z,946.64
2019-01-02T09:01:54.846Z,946.65
2019-01-02T09:02:55.322Z,946.61
2019-01-02T09:03:56.010Z,946.61
2019-01-02T09:04:56.671Z,946.6
2019-01-02T09:05:56.912Z,946.6
2019-01-02T09:06:59.034Z,946.63
2019-01-02T09:07:09.535Z,946.64
2019-01-02T09:07:22.251Z,946.69
2019-01-02T09:07:34.375Z,946.7
2019-01-02T09:08:34.759Z,946.65
2019-01-02T09:09:35.740Z,946.65
2019-01-02T09:10:36.501Z,946.65
2019-01-02T09:11:37.650Z,946.66
2019-01-02T09:12:38.078Z,946.66
2019-01-02T09:13:39.076Z,946.64
2019-01-02T09:14:39.772Z,946.67
2019-01-02T09:15:40.189Z,946.63
2019-01-02T09:16:41.328Z,946.68
2019-01-02T09:17:41.747Z,946.7
2019-01-02T09:18:43.131Z,946.67
2019-01-02T09:19:43.552Z,946.72
2019-01-02T09:20:44.258Z,946.78
2019-01-02T09:21:46.735Z,946.82
2019-01-02T09:22:46.423Z,946.85
2019-01-02T09:23:47.411Z,946.82
2019-01-02T09:24:47.830Z,946.79
2019-01-02T09:25:49.709Z,946.71
2019-01-02T09:26:00.755Z,946.76
2019-01-02T09:26:13.841Z,946.75
2019-01-02T09:27:14.610Z,946.8
2019-01-02T09:28:16.029Z,946.75
2019-01-02T09:29:16.461Z,946.81
2019-01-02T09:30:17.174Z,946.85
2019-01-02T09:31:17.641Z,946.9
2019-01-02T09:32:19.060Z,946.78
2019-01-02T09:33:19.763Z,946.89
2019-01-02T09:34:20.778Z,946.85
2019-01-02T09:35:21.198Z,946.85
2019-01-02T09:36:21.618Z,946.95
2019-01-02T09:37:22.196Z,946.97
2019-01-02T09:38:22.893Z,946.88
2019-01-02T09:39:23.598Z,946.87
2019-01-02T09:40:24.066Z,946.9
2019-01-02T09:41:24.487Z,946.84
2019-01-02T09:42:24.912Z,946.93
2019-01-02T09:43:25.335Z,946.89
2019-01-02T09:44:26.040Z,946.87
2019-01-02T09:45:27.055Z,946.9
2019-01-02T09:46:28.152Z,946.9
2019-01-02T09:47:28.817Z,946.88
2019-01-02T09:48:30.746Z,946.85
2019-01-02T09:49:30.670Z,946.85
2019-01-02T09:50:31.362Z,946.81
2019-01-02T09:51:34.045Z,946.83
2019-01-02T09:51:45.031Z,946.79
2019-01-02T09:51:57.242Z,946.86
2019-01-02T09:52:08.765Z,946.85
2019-01-02T09:53:09.293Z,946.81
2019-01-02T09:54:09.583Z,946.79
2019-01-02T09:55:10.289Z,946.82
2019-01-02T09:56:11.264Z,946.87
2019-01-02T09:57:12.505Z,946.87
2019-01-02T09:58:13.016Z,946.88
2019-01-02T09:59:13.712Z,946.89
2019-01-02T10:00:14.853Z,946.88
2019-01-02T10:01:15.278Z,946.82
2019-01-02T10:02:16.255Z,946.84
2019-01-02T10:03:16.806Z,946.83
2019-01-02T10:04:17.231Z,946.8
2019-01-02T10:05:17.650Z,946.76
2019-01-02T10:06:18.070Z,946.76
2019-01-02T10:07:18.599Z,946.78
2019-01-02T10:08:19.574Z,946.79
2019-01-02T10:09:20.274Z,946.77
2019-01-02T10:10:20.973Z,946.79
2019-01-02T10:11:21.950Z,946.83
2019-01-02T10:12:22.645Z,946.8
2019-01-02T10:13:23.503Z,946.82
2019-01-02T10:14:24.643Z,946.82
2019-01-02T10:15:25.061Z,946.8
2019-01-02T10:16:25.765Z,946.82
2019-01-02T10:17:26.462Z,946.81
2019-01-02T10:18:27.161Z,946.81
2019-01-02T10:19:27.578Z,946.78
2019-01-02T10:20:28.559Z,946.76
2019-01-02T10:21:28.978Z,946.87
2019-01-02T10:22:31.300Z,946.85
2019-01-02T10:22:44.262Z,946.82
2019-01-02T10:22:57.685Z,946.82
2019-01-02T10:23:09.896Z,946.74
2019-01-02T10:23:21.782Z,946.81
2019-01-02T10:24:21.584Z,946.9
2019-01-02T10:25:22.280Z,946.9
2019-01-02T10:26:23.253Z,946.91
2019-01-02T10:27:23.670Z,946.92
2019-01-02T10:28:24.095Z,946.94
2019-01-02T10:29:24.514Z,946.93
2019-01-02T10:30:25.657Z,946.95
2019-01-02T10:31:26.078Z,946.88
2019-01-02T10:32:27.053Z,946.95
2019-01-02T10:33:27.759Z,946.94
2019-01-02T10:34:12.016Z,946.89
2019-01-02T10:34:23.987Z,946.85
2019-01-02T10:34:36.162Z,946.85
2019-01-02T10:35:37.222Z,946.88
2019-01-02T10:36:38.221Z,946.93
2019-01-02T10:37:38.643Z,946.92
2019-01-02T10:38:39.391Z,946.86
2019-01-02T10:39:40.066Z,946.91
2019-01-02T10:40:40.766Z,946.89
2019-01-02T10:41:41.027Z,946.89
2019-01-02T10:42:41.556Z,946.91
2019-01-02T10:43:41.772Z,946.9
2019-01-02T10:44:42.923Z,946.85
2019-01-02T10:45:44.057Z,946.86
2019-01-02T10:45:56.080Z,946.85
2019-01-02T10:46:56.351Z,946.85
2019-01-02T10:47:57.325Z,946.81
2019-01-02T10:48:57.581Z,946.8
2019-01-02T10:49:58.837Z,946.8
2019-01-02T10:50:59.666Z,946.81
2019-01-02T10:52:01.711Z,946.8
2019-01-02T10:53:01.627Z,946.84
2019-01-02T10:54:02.363Z,946.75
2019-01-02T10:55:03.383Z,946.78
2019-01-02T10:56:03.934Z,946.75
2019-01-02T10:57:04.761Z,946.77
2019-01-02T10:58:05.917Z,946.76
2019-01-02T10:59:07.752Z,946.73
2019-01-02T11:00:07.392Z,946.73
2019-01-02T11:01:07.819Z,946.7
2019-01-02T11:02:08.801Z,946.66
2019-01-02T11:03:09.222Z,946.68
2019-01-02T11:04:10.197Z,946.59
2019-01-02T11:05:10.896Z,946.57
2019-01-02T11:06:11.324Z,946.63
2019-01-02T11:07:12.457Z,946.62
2019-01-02T11:08:14.183Z,946.57
2019-01-02T11:09:14.880Z,946.56
2019-01-02T11:10:16.026Z,946.55
2019-01-02T11:11:17.235Z,946.48
2019-01-02T11:12:17.813Z,946.51
2019-01-02T11:13:18.515Z,946.53
2019-01-02T11:14:18.941Z,946.47
2019-01-02T11:15:20.196Z,946.48
2019-01-02T11:16:20.616Z,946.48
2019-01-02T11:17:21.745Z,946.52
2019-01-02T11:18:22.891Z,946.55
2019-01-02T11:19:23.593Z,946.54
2019-01-02T11:20:24.735Z,946.53
2019-01-02T11:21:25.443Z,946.44
2019-01-02T11:22:26.437Z,946.47
2019-01-02T11:22:38.738Z,946.43
2019-01-02T11:22:50.499Z,946.45
2019-01-02T11:23:50.071Z,946.5
2019-01-02T11:24:50.498Z,946.4
2019-01-02T11:25:51.265Z,946.38
2019-01-02T11:26:52.909Z,946.43
2019-01-02T11:27:52.074Z,946.46
2019-01-02T11:28:52.772Z,946.5
2019-01-02T11:29:53.477Z,946.43
2019-01-02T11:30:54.617Z,946.42
2019-01-02T11:31:55.355Z,946.49
2019-01-02T11:32:56.503Z,946.45
2019-01-02T11:33:57.948Z,946.51
2019-01-02T11:34:58.368Z,946.44
2019-01-02T11:35:58.789Z,946.47
2019-01-02T11:36:59.767Z,946.51
2019-01-02T11:38:00.762Z,946.55
2019-01-02T11:39:01.739Z,946.5
2019-01-02T11:40:02.012Z,946.52
2019-01-02T11:41:02.713Z,946.51
2019-01-02T11:42:03.133Z,946.37
2019-01-02T11:43:03.866Z,946.36
2019-01-02T11:44:04.802Z,946.36
2019-01-02T11:45:05.497Z,946.31
2019-01-02T11:46:06.472Z,946.25
2019-01-02T11:47:06.896Z,946.33
2019-01-02T11:48:07.894Z,946.26
2019-01-02T11:49:08.594Z,946.26
2019-01-02T11:50:09.031Z,946.27
2019-01-02T11:51:10.646Z,946.26
2019-01-02T11:51:21.643Z,946.28
2019-01-02T11:52:24.279Z,946.23
2019-01-02T11:52:35.400Z,946.24
2019-01-02T11:52:48.216Z,946.2
2019-01-02T11:53:48.471Z,946.17
2019-01-02T11:54:48.658Z,946.19
2019-01-02T11:55:49.799Z,946.24
2019-01-02T11:56:50.221Z,946.23
2019-01-02T11:57:50.968Z,946.23
2019-01-02T11:58:51.383Z,946.24
2019-01-02T11:59:52.533Z,946.22
2019-01-02T12:00:52.964Z,946.18
2019-01-02T12:01:53.940Z,946.23
2019-01-02T12:02:54.635Z,946.22
2019-01-02T12:03:55.078Z,946.25
2019-01-02T12:04:55.775Z,946.27
2019-01-02T12:05:56.198Z,946.26
2019-01-02T12:06:56.896Z,946.25
2019-01-02T12:07:59.086Z,946.31
2019-01-02T12:08:10.106Z,946.35
2019-01-02T12:09:10.356Z,946.3
2019-01-02T12:10:10.773Z,946.34
2019-01-02T12:11:12.045Z,946.36
2019-01-02T12:12:12.743Z,946.31
2019-01-02T12:13:13.442Z,946.31
2019-01-02T12:14:14.142Z,946.23
2019-01-02T12:15:14.843Z,946.27
2019-01-02T12:16:15.279Z,946.21
2019-01-02T12:17:16.265Z,946.17
2019-01-02T12:18:16.686Z,946.23
2019-01-02T12:19:17.614Z,946.23
2019-01-02T12:20:18.321Z,946.23
2019-01-02T12:21:19.298Z,946.2
2019-01-02T12:22:21.141Z,946.21
2019-01-02T12:23:22.119Z,946.16
2019-01-02T12:24:23.266Z,946.18